Time,TemperatureF,DewpointF,PressureIn,WindDirection,WindDirectionDegrees,WindSpeedMPH,WindSpeedGustMPH,Humidity,HourlyPrecipIn,Conditions,Clouds,dailyrainin,SolarRadiationWatts/m^2,SoftwareType,DateUTC
2013-09-22 00:04:00,64.6,64.3,29.66,SSE,159,3.0,7.0,99,0.00,,,0.01,0,Wunderground v.1.15,2013-09-22 04:04:00,
2013-09-22 00:09:00,64.6,64.3,29.66,SSE,164,4.0,7.0,99,0.10,,,0.02,0,Wunderground v.1.15,2013-09-22 04:09:00,
2013-09-22 00:14:00,64.7,64.4,29.66,SSE,159,4.0,4.0,99,0.09,,,0.02,0,Wunderground v.1.15,2013-09-22 04:14:00,
2013-09-22 00:19:00,64.7,64.4,29.65,SE,133,5.0,5.0,99,0.05,,,0.02,0,Wunderground v.1.15,2013-09-22 04:19:00,
2013-09-22 00:24:00,64.7,64.4,29.65,SW,215,4.0,5.0,99,0.04,,,0.02,0,Wunderground v.1.15,2013-09-22 04:24:00,
2013-09-22 00:34:00,64.7,64.4,29.64,SW,222,4.0,4.0,99,0.20,,,0.08,0,Wunderground v.1.15,2013-09-22 04:34:00,
2013-09-22 00:44:00,64.7,64.4,29.64,ENE,78,4.0,4.0,99,0.14,,,0.12,0,Wunderground v.1.15,2013-09-22 04:44:00,
2013-09-22 00:49:00,64.8,64.5,29.63,ESE,117,4.0,4.0,99,0.38,,,0.15,0,Wunderground v.1.15,2013-09-22 04:49:00,
2013-09-22 00:54:00,64.8,64.5,29.63,South,190,4.0,4.0,99,0.35,,,0.18,0,Wunderground v.1.15,2013-09-22 04:54:00,
2013-09-22 01:04:00,64.8,64.5,29.62,South,186,4.0,4.0,99,0.20,,,0.24,0,Wunderground v.1.15,2013-09-22 05:04:00,
2013-09-22 01:09:00,64.8,64.5,29.62,SE,124,4.0,7.0,99,0.16,,,0.25,0,Wunderground v.1.15,2013-09-22 05:09:00,
2013-09-22 01:14:00,64.9,64.6,29.63,SE,129,5.0,5.0,99,0.17,,,0.27,0,Wunderground v.1.15,2013-09-22 05:14:00,
2013-09-22 01:19:00,64.8,64.5,29.62,South,177,6.0,6.0,99,0.17,,,0.28,0,Wunderground v.1.15,2013-09-22 05:19:00,
2013-09-22 01:29:00,64.6,64.3,29.62,East,83,4.0,5.0,99,0.10,,,0.30,0,Wunderground v.1.15,2013-09-22 05:29:00,
2013-09-22 01:39:00,64.2,63.9,29.64,ESE,118,3.0,4.0,99,0.49,,,0.39,0,Wunderground v.1.15,2013-09-22 05:39:00,
2013-09-22 01:49:00,62.9,62.3,29.64,East,90,3.0,4.0,98,0.16,,,0.45,0,Wunderground v.1.15,2013-09-22 05:49:00,
2013-09-22 01:54:00,62.6,62.0,29.64,SSE,155,2.0,3.0,98,0.26,,,0.48,0,Wunderground v.1.15,2013-09-22 05:54:00,
2013-09-22 02:04:00,62.0,61.4,29.63,NE,34,1.0,1.0,98,0.19,,,0.54,0,Wunderground v.1.15,2013-09-22 06:04:00,
2013-09-22 02:09:00,61.7,61.1,29.63,SE,126,1.0,1.0,98,0.84,,,0.56,0,Wunderground v.1.15,2013-09-22 06:09:00,
2013-09-22 02:14:00,61.5,60.9,29.63,SE,130,1.0,1.0,98,0.23,,,0.59,0,Wunderground v.1.15,2013-09-22 06:14:00,
2013-09-22 02:19:00,61.3,60.7,29.63,SE,130,1.0,1.0,98,0.37,,,0.62,0,Wunderground v.1.15,2013-09-22 06:19:00,
2013-09-22 02:29:00,61.1,60.8,29.63,SE,130,1.0,1.0,99,0.18,,,0.65,0,Wunderground v.1.15,2013-09-22 06:29:00,
2013-09-22 02:34:00,60.9,60.3,29.63,SE,130,0.0,1.0,98,0.12,,,0.65,0,Wunderground v.1.15,2013-09-22 06:34:00,
2013-09-22 02:39:00,60.8,60.2,29.63,SE,130,0.0,1.0,98,0.06,,,0.65,0,Wunderground v.1.15,2013-09-22 06:39:00,
2013-09-22 02:49:00,60.6,60.3,29.63,SE,130,0.0,0.0,99,0.13,,,0.68,0,Wunderground v.1.15,2013-09-22 06:49:00,
2013-09-22 02:59:00,60.4,60.1,29.62,SE,128,0.0,0.0,99,0.09,,,0.69,0,Wunderground v.1.15,2013-09-22 06:59:00,
2013-09-22 03:04:00,60.3,59.7,29.62,SE,128,0.0,0.0,98,0.12,,,0.70,0,Wunderground v.1.15,2013-09-22 07:04:00,
2013-09-22 03:09:00,60.2,59.6,29.62,SE,128,0.0,0.0,98,0.11,,,0.71,0,Wunderground v.1.15,2013-09-22 07:09:00,
2013-09-22 03:14:00,60.1,59.8,29.62,SE,128,0.0,0.0,99,0.21,,,0.73,0,Wunderground v.1.15,2013-09-22 07:14:00,
2013-09-22 03:19:00,60.0,59.7,29.63,SE,128,0.0,1.0,99,0.11,,,0.74,0,Wunderground v.1.15,2013-09-22 07:19:00,
2013-09-22 03:24:00,60.0,59.7,29.63,SE,128,0.0,2.0,99,0.16,,,0.75,0,Wunderground v.1.15,2013-09-22 07:24:00,
2013-09-22 03:29:00,59.9,59.6,29.63,NE,46,1.0,2.0,99,0.13,,,0.76,0,Wunderground v.1.15,2013-09-22 07:29:00,
2013-09-22 03:39:00,59.8,59.5,29.63,ESE,106,1.0,2.0,99,0.16,,,0.79,0,Wunderground v.1.15,2013-09-22 07:39:00,
2013-09-22 03:44:00,59.8,59.5,29.63,ESE,106,1.0,1.0,99,0.09,,,0.79,0,Wunderground v.1.15,2013-09-22 07:44:00,
2013-09-22 03:54:00,59.7,59.4,29.61,ESE,106,0.0,0.0,99,0.04,,,0.80,0,Wunderground v.1.15,2013-09-22 07:54:00,
2013-09-22 03:59:00,59.6,59.3,29.62,NE,39,0.0,0.0,99,0.04,,,0.80,0,Wunderground v.1.15,2013-09-22 07:59:00,
2013-09-22 04:04:00,59.6,59.3,29.62,NE,39,0.0,0.0,99,0.04,,,0.80,0,Wunderground v.1.15,2013-09-22 08:04:00,
2013-09-22 04:14:00,59.4,59.1,29.63,SE,128,0.0,0.0,99,0.05,,,0.81,0,Wunderground v.1.15,2013-09-22 08:14:00,
2013-09-22 04:24:00,59.3,59.0,29.65,SE,128,0.0,2.0,99,0.06,,,0.82,0,Wunderground v.1.15,2013-09-22 08:24:00,
2013-09-22 04:29:00,59.3,59.0,29.65,ESE,104,1.0,2.0,99,0.05,,,0.83,0,Wunderground v.1.15,2013-09-22 08:29:00,
2013-09-22 04:34:00,59.2,58.9,29.65,ESE,104,1.0,1.0,99,0.05,,,0.83,0,Wunderground v.1.15,2013-09-22 08:34:00,
2013-09-22 04:44:00,59.0,58.7,29.65,ESE,104,1.0,1.0,99,0.00,,,0.83,0,Wunderground v.1.15,2013-09-22 08:44:00,
2013-09-22 04:49:00,58.9,58.6,29.64,ESE,104,0.0,1.0,99,0.00,,,0.83,0,Wunderground v.1.15,2013-09-22 08:49:00,
2013-09-22 04:54:00,58.8,58.5,29.64,ESE,104,0.0,0.0,99,0.00,,,0.83,0,Wunderground v.1.15,2013-09-22 08:54:00,
2013-09-22 04:59:00,58.8,58.5,29.65,ESE,104,0.0,0.0,99,0.00,,,0.83,0,Wunderground v.1.15,2013-09-22 08:59:00,
2013-09-22 05:09:00,58.6,58.3,29.65,ESE,104,0.0,0.0,99,0.00,,,0.83,0,Wunderground v.1.15,2013-09-22 09:09:00,
2013-09-22 05:14:00,58.5,58.2,29.65,ESE,104,0.0,0.0,99,0.00,,,0.83,0,Wunderground v.1.15,2013-09-22 09:14:00,
2013-09-22 05:24:00,58.5,58.2,29.65,ESE,104,0.0,0.0,99,0.00,,,0.83,0,Wunderground v.1.15,2013-09-22 09:24:00,
2013-09-22 05:29:00,58.4,58.1,29.65,ESE,104,0.0,0.0,99,0.00,,,0.83,0,Wunderground v.1.15,2013-09-22 09:29:00,
2013-09-22 05:34:00,58.4,58.1,29.66,ESE,104,0.0,0.0,99,0.00,,,0.83,0,Wunderground v.1.15,2013-09-22 09:34:00,
2013-09-22 05:44:00,58.4,58.1,29.66,ESE,104,0.0,0.0,99,0.00,,,0.83,0,Wunderground v.1.15,2013-09-22 09:44:00,
2013-09-22 05:49:00,58.4,58.1,29.66,ESE,104,0.0,0.0,99,0.00,,,0.83,0,Wunderground v.1.15,2013-09-22 09:49:00,
2013-09-22 05:59:00,58.4,58.1,29.66,ESE,104,0.0,0.0,99,0.00,,,0.83,0,Wunderground v.1.15,2013-09-22 09:59:00,
2013-09-22 06:09:00,58.4,58.1,29.67,ESE,104,0.0,0.0,99,0.00,,,0.83,0,Wunderground v.1.15,2013-09-22 10:09:00,
2013-09-22 06:19:00,58.3,58.0,29.67,ESE,104,0.0,0.0,99,0.00,,,0.83,0,Wunderground v.1.15,2013-09-22 10:19:00,
2013-09-22 06:24:00,58.3,58.0,29.67,ESE,104,0.0,0.0,99,0.00,,,0.83,0,Wunderground v.1.15,2013-09-22 10:24:00,
2013-09-22 06:29:00,58.2,57.9,29.66,ESE,104,0.0,0.0,99,0.00,,,0.83,0,Wunderground v.1.15,2013-09-22 10:29:00,
2013-09-22 06:34:00,58.2,57.9,29.67,ESE,104,0.0,0.0,99,0.00,,,0.83,0,Wunderground v.1.15,2013-09-22 10:34:00,
2013-09-22 06:44:00,58.1,57.8,29.67,ESE,104,0.0,0.0,99,0.00,,,0.83,0,Wunderground v.1.15,2013-09-22 10:44:00,
2013-09-22 06:49:00,58.0,57.7,29.67,ESE,104,0.0,0.0,99,0.00,,,0.83,5,Wunderground v.1.15,2013-09-22 10:49:00,
2013-09-22 06:54:00,57.9,57.6,29.67,ESE,104,0.0,0.0,99,0.00,,,0.83,5,Wunderground v.1.15,2013-09-22 10:54:00,
2013-09-22 06:59:00,57.8,57.5,29.67,ESE,104,0.0,0.0,99,0.00,,,0.83,5,Wunderground v.1.15,2013-09-22 10:59:00,
2013-09-22 07:04:00,57.8,57.5,29.68,ESE,104,0.0,0.0,99,0.00,,,0.83,9,Wunderground v.1.15,2013-09-22 11:04:00,
2013-09-22 07:09:00,57.8,57.5,29.67,ESE,104,0.0,0.0,99,0.00,,,0.83,11,Wunderground v.1.15,2013-09-22 11:09:00,
2013-09-22 07:19:00,57.8,57.5,29.68,ESE,104,0.0,0.0,99,0.00,,,0.83,16,Wunderground v.1.15,2013-09-22 11:19:00,
2013-09-22 07:24:00,57.8,57.5,29.68,ESE,104,0.0,0.0,99,0.00,,,0.83,11,Wunderground v.1.15,2013-09-22 11:24:00,
2013-09-22 07:34:00,57.7,57.4,29.68,ESE,104,0.0,0.0,99,0.00,,,0.83,14,Wunderground v.1.15,2013-09-22 11:34:00,
2013-09-22 07:39:00,57.6,57.3,29.68,ESE,104,0.0,0.0,99,0.00,,,0.83,12,Wunderground v.1.15,2013-09-22 11:39:00,
2013-09-22 07:44:00,57.6,57.3,29.68,ESE,104,0.0,1.0,99,0.00,,,0.83,11,Wunderground v.1.15,2013-09-22 11:44:00,
2013-09-22 07:49:00,57.6,57.3,29.68,ESE,104,0.0,1.0,99,0.00,,,0.83,11,Wunderground v.1.15,2013-09-22 11:49:00,
2013-09-22 07:54:00,57.5,57.2,29.68,ESE,104,0.0,0.0,99,0.00,,,0.83,28,Wunderground v.1.15,2013-09-22 11:54:00,
2013-09-22 08:04:00,57.7,57.7,29.68,ESE,104,0.0,0.0,100,0.00,,,0.83,132,Wunderground v.1.15,2013-09-22 12:04:00,
2013-09-22 08:14:00,59.2,59.2,29.68,ESE,104,0.0,1.0,100,0.00,,,0.83,334,Wunderground v.1.15,2013-09-22 12:14:00,
2013-09-22 08:24:00,60.5,60.5,29.69,North,9,1.0,1.0,100,0.00,,,0.83,220,Wunderground v.1.15,2013-09-22 12:24:00,
2013-09-22 08:29:00,60.5,60.2,29.69,North,355,2.0,2.0,99,0.00,,,0.83,116,Wunderground v.1.15,2013-09-22 12:29:00,
2013-09-22 08:34:00,60.5,60.2,29.69,North,5,2.0,3.0,99,0.00,,,0.83,301,Wunderground v.1.15,2013-09-22 12:34:00,
2013-09-22 08:44:00,60.8,59.9,29.69,WNW,300,3.0,6.0,97,0.00,,,0.83,62,Wunderground v.1.15,2013-09-22 12:44:00,
2013-09-22 08:54:00,59.5,57.5,29.70,North,5,5.0,10.0,93,0.00,,,0.83,81,Wunderground v.1.15,2013-09-22 12:54:00,
2013-09-22 08:59:00,58.9,56.6,29.70,North,5,5.0,10.0,92,0.00,,,0.83,139,Wunderground v.1.15,2013-09-22 12:59:00,
2013-09-22 09:04:00,58.5,56.5,29.70,NNW,347,5.0,5.0,93,0.00,,,0.83,146,Wunderground v.1.15,2013-09-22 13:04:00,
2013-09-22 09:14:00,57.8,55.5,29.70,NNE,12,5.0,5.0,92,0.00,,,0.83,396,Wunderground v.1.15,2013-09-22 13:14:00,
2013-09-22 09:19:00,58.8,56.5,29.70,North,5,6.0,6.0,92,0.00,,,0.83,411,Wunderground v.1.15,2013-09-22 13:19:00,
2013-09-22 09:24:00,59.5,56.6,29.70,WNW,299,6.0,11.0,90,0.00,,,0.83,450,Wunderground v.1.15,2013-09-22 13:24:00,
2013-09-22 09:29:00,60.1,56.5,29.70,NNW,346,5.0,11.0,88,0.00,,,0.83,540,Wunderground v.1.15,2013-09-22 13:29:00,
2013-09-22 09:39:00,60.4,54.9,29.71,NW,326,6.0,6.0,82,0.00,,,0.83,250,Wunderground v.1.15,2013-09-22 13:39:00,
2013-09-22 09:44:00,59.9,55.4,29.71,North,5,5.0,5.0,85,0.00,,,0.83,390,Wunderground v.1.15,2013-09-22 13:44:00,
2013-09-22 09:49:00,60.3,55.8,29.71,North,5,5.0,5.0,85,0.00,,,0.83,494,Wunderground v.1.15,2013-09-22 13:49:00,
2013-09-22 09:54:00,60.7,55.5,29.71,NW,312,5.0,5.0,83,0.00,,,0.83,497,Wunderground v.1.15,2013-09-22 13:54:00,
2013-09-22 09:59:00,60.6,54.7,29.71,NE,38,5.0,8.0,81,0.00,,,0.83,508,Wunderground v.1.15,2013-09-22 13:59:00,
2013-09-22 10:09:00,61.0,55.1,29.72,North,360,5.0,5.0,81,0.00,,,0.83,534,Wunderground v.1.15,2013-09-22 14:09:00,
2013-09-22 10:19:00,61.0,53.0,29.72,NW,313,7.0,9.0,75,0.00,,,0.83,548,Wunderground v.1.15,2013-09-22 14:19:00,
2013-09-22 10:24:00,61.3,54.4,29.71,North,5,6.0,8.0,78,0.00,,,0.83,563,Wunderground v.1.15,2013-09-22 14:24:00,
2013-09-22 10:34:00,61.3,53.7,29.71,NW,325,5.0,6.0,76,0.00,,,0.83,585,Wunderground v.1.15,2013-09-22 14:34:00,
2013-09-22 10:39:00,61.6,54.7,29.72,NNW,339,5.0,7.0,78,0.00,,,0.83,606,Wunderground v.1.15,2013-09-22 14:39:00,
2013-09-22 10:44:00,62.0,54.0,29.72,North,5,6.0,6.0,75,0.00,,,0.83,670,Wunderground v.1.15,2013-09-22 14:44:00,
2013-09-22 10:54:00,61.8,54.9,29.72,NNW,348,5.0,5.0,78,0.00,,,0.83,691,Wunderground v.1.15,2013-09-22 14:54:00,
2013-09-22 10:59:00,63.2,54.8,29.72,NNW,340,4.0,5.0,74,0.00,,,0.83,833,Wunderground v.1.15,2013-09-22 14:59:00,
2013-09-22 11:04:00,62.8,53.6,29.72,NW,306,4.0,4.0,72,0.00,,,0.83,207,Wunderground v.1.15,2013-09-22 15:04:00,
2013-09-22 11:14:00,61.3,53.3,29.72,NW,319,5.0,10.0,75,0.00,,,0.83,689,Wunderground v.1.15,2013-09-22 15:14:00,
2013-09-22 11:19:00,62.2,53.8,29.72,NNE,17,4.0,10.0,74,0.00,,,0.83,756,Wunderground v.1.15,2013-09-22 15:19:00,
2013-09-22 11:24:00,61.8,53.1,29.72,NNW,334,6.0,6.0,73,0.00,,,0.83,473,Wunderground v.1.15,2013-09-22 15:24:00,
2013-09-22 11:34:00,62.7,52.8,29.72,WNW,286,5.0,10.0,70,0.00,,,0.83,710,Wunderground v.1.15,2013-09-22 15:34:00,
2013-09-22 11:39:00,62.6,51.5,29.72,WNW,293,5.0,10.0,67,0.00,,,0.83,754,Wunderground v.1.15,2013-09-22 15:39:00,
2013-09-22 11:44:00,61.6,50.5,29.72,North,11,6.0,6.0,67,0.00,,,0.83,243,Wunderground v.1.15,2013-09-22 15:44:00,
2013-09-22 11:54:00,61.7,52.2,29.72,NNW,327,4.0,4.0,71,0.00,,,0.83,311,Wunderground v.1.15,2013-09-22 15:54:00,
2013-09-22 12:04:00,62.1,53.0,29.72,NNW,338,5.0,7.0,72,0.00,,,0.83,784,Wunderground v.1.15,2013-09-22 16:04:00,
2013-09-22 12:09:00,63.4,52.7,29.72,NNE,19,6.0,7.0,68,0.00,,,0.83,807,Wunderground v.1.15,2013-09-22 16:09:00,
2013-09-22 12:14:00,64.0,51.6,29.72,North,349,5.0,5.0,64,0.00,,,0.83,789,Wunderground v.1.15,2013-09-22 16:14:00,
2013-09-22 12:19:00,64.7,55.1,29.72,ENE,69,5.0,5.0,71,0.00,,,0.83,1000,Wunderground v.1.15,2013-09-22 16:19:00,
2013-09-22 12:29:00,61.8,51.1,29.72,NW,323,7.0,10.0,68,0.00,,,0.83,276,Wunderground v.1.15,2013-09-22 16:29:00,
2013-09-22 12:34:00,60.4,50.6,29.72,North,360,7.0,7.0,70,0.00,,,0.83,304,Wunderground v.1.15,2013-09-22 16:34:00,
2013-09-22 12:39:00,60.6,50.8,29.72,North,355,7.0,7.0,70,0.00,,,0.83,360,Wunderground v.1.15,2013-09-22 16:39:00,
2013-09-22 12:49:00,60.5,51.0,29.72,NW,315,6.0,7.0,71,0.00,,,0.83,279,Wunderground v.1.15,2013-09-22 16:49:00,
2013-09-22 12:59:00,62.0,52.1,29.73,NE,42,4.0,6.0,70,0.00,,,0.83,288,Wunderground v.1.15,2013-09-22 16:59:00,
2013-09-22 13:09:00,61.0,51.5,29.72,NE,54,6.0,6.0,71,0.00,,,0.83,466,Wunderground v.1.15,2013-09-22 17:09:00,
2013-09-22 13:14:00,61.8,51.5,29.72,NNE,20,7.0,10.0,69,0.00,,,0.83,462,Wunderground v.1.15,2013-09-22 17:14:00,
2013-09-22 13:19:00,62.4,51.3,29.72,North,9,7.0,10.0,67,0.00,,,0.83,912,Wunderground v.1.15,2013-09-22 17:19:00,
2013-09-22 13:24:00,62.3,50.8,29.73,NNE,15,6.0,8.0,66,0.00,,,0.83,271,Wunderground v.1.15,2013-09-22 17:24:00,
2013-09-22 13:29:00,60.6,49.6,29.72,North,349,6.0,8.0,67,0.00,,,0.83,401,Wunderground v.1.15,2013-09-22 17:29:00,
2013-09-22 13:34:00,60.3,50.5,29.72,NW,312,7.0,7.0,70,0.00,,,0.83,285,Wunderground v.1.15,2013-09-22 17:34:00,
2013-09-22 13:39:00,60.5,50.7,29.72,North,350,6.0,7.0,70,0.00,,,0.83,826,Wunderground v.1.15,2013-09-22 17:39:00,
2013-09-22 13:49:00,60.9,49.5,29.72,NNW,328,5.0,9.0,66,0.00,,,0.83,346,Wunderground v.1.15,2013-09-22 17:49:00,
2013-09-22 13:54:00,61.1,50.5,29.72,NNE,15,5.0,5.0,68,0.00,,,0.83,246,Wunderground v.1.15,2013-09-22 17:54:00,
2013-09-22 14:04:00,60.3,49.3,29.72,ENE,76,4.0,4.0,67,0.00,,,0.83,638,Wunderground v.1.15,2013-09-22 18:04:00,
2013-09-22 14:09:00,62.0,50.5,29.72,NW,317,4.0,11.0,66,0.00,,,0.83,724,Wunderground v.1.15,2013-09-22 18:09:00,
2013-09-22 14:14:00,63.1,50.7,29.72,NW,306,5.0,6.0,64,0.00,,,0.83,708,Wunderground v.1.15,2013-09-22 18:14:00,
2013-09-22 14:24:00,62.0,48.8,29.72,North,11,7.0,7.0,62,0.00,,,0.83,302,Wunderground v.1.15,2013-09-22 18:24:00,
2013-09-22 14:29:00,62.1,49.4,29.72,North,5,6.0,8.0,63,0.00,,,0.83,292,Wunderground v.1.15,2013-09-22 18:29:00,
2013-09-22 14:34:00,61.6,48.4,29.72,North,349,6.0,9.0,62,0.00,,,0.83,362,Wunderground v.1.15,2013-09-22 18:34:00,
2013-09-22 14:39:00,61.6,50.1,29.73,North,355,6.0,9.0,66,0.00,,,0.83,248,Wunderground v.1.15,2013-09-22 18:39:00,
2013-09-22 14:44:00,60.7,48.0,29.73,NW,317,6.0,6.0,63,0.00,,,0.83,271,Wunderground v.1.15,2013-09-22 18:44:00,
2013-09-22 14:49:00,61.3,51.4,29.73,North,360,6.0,6.0,70,0.00,,,0.83,717,Wunderground v.1.15,2013-09-22 18:49:00,
2013-09-22 14:59:00,61.5,48.8,29.73,North,5,8.0,8.0,63,0.00,,,0.83,221,Wunderground v.1.15,2013-09-22 18:59:00,
2013-09-22 15:09:00,60.2,50.0,29.73,NNW,336,5.0,7.0,69,0.00,,,0.83,272,Wunderground v.1.15,2013-09-22 19:09:00,
2013-09-22 15:14:00,60.1,48.7,29.73,NNW,337,5.0,6.0,66,0.00,,,0.83,241,Wunderground v.1.15,2013-09-22 19:14:00,
2013-09-22 15:24:00,60.4,49.8,29.73,NNW,346,4.0,5.0,68,0.00,,,0.83,188,Wunderground v.1.15,2013-09-22 19:24:00,
2013-09-22 15:34:00,59.2,50.2,29.73,NNW,347,7.0,8.0,72,0.00,,,0.83,236,Wunderground v.1.15,2013-09-22 19:34:00,
2013-09-22 15:39:00,58.9,49.9,29.73,NNW,340,7.0,8.0,72,0.00,,,0.83,225,Wunderground v.1.15,2013-09-22 19:39:00,
2013-09-22 15:49:00,58.3,48.9,29.74,NNW,334,7.0,11.0,71,0.00,,,0.83,125,Wunderground v.1.15,2013-09-22 19:49:00,
2013-09-22 15:59:00,57.8,48.1,29.74,NNE,17,6.0,7.0,70,0.00,,,0.83,49,Wunderground v.1.15,2013-09-22 19:59:00,
2013-09-22 16:04:00,57.7,48.7,29.74,NNW,335,6.0,9.0,72,0.00,,,0.83,37,Wunderground v.1.15,2013-09-22 20:04:00,
2013-09-22 16:14:00,57.2,47.9,29.74,NNW,334,5.0,6.0,71,0.00,,,0.83,40,Wunderground v.1.15,2013-09-22 20:14:00,
2013-09-22 16:19:00,57.1,47.8,29.74,NW,319,5.0,6.0,71,0.00,,,0.83,37,Wunderground v.1.15,2013-09-22 20:19:00,
2013-09-22 16:29:00,57.0,47.7,29.74,North,9,5.0,7.0,71,0.00,,,0.83,116,Wunderground v.1.15,2013-09-22 20:29:00,
2013-09-22 16:34:00,57.3,48.0,29.74,NNE,15,7.0,7.0,71,0.00,,,0.83,109,Wunderground v.1.15,2013-09-22 20:34:00,
2013-09-22 16:39:00,57.2,47.9,29.74,NNW,338,8.0,10.0,71,0.00,,,0.83,128,Wunderground v.1.15,2013-09-22 20:39:00,
2013-09-22 16:49:00,57.1,48.2,29.74,NW,304,7.0,12.0,72,0.00,,,0.83,28,Wunderground v.1.15,2013-09-22 20:49:00,
2013-09-22 16:59:00,56.3,47.0,29.75,North,5,7.0,7.0,71,0.00,,,0.83,23,Wunderground v.1.15,2013-09-22 20:59:00,
2013-09-22 17:04:00,56.0,46.7,29.74,NNE,17,7.0,7.0,71,0.00,,,0.83,23,Wunderground v.1.15,2013-09-22 21:04:00,
2013-09-22 17:09:00,55.9,47.0,29.75,North,349,6.0,9.0,72,0.00,,,0.83,23,Wunderground v.1.15,2013-09-22 21:09:00,
2013-09-22 17:19:00,55.6,46.0,29.75,NNE,24,7.0,7.0,70,0.00,,,0.83,21,Wunderground v.1.15,2013-09-22 21:19:00,
2013-09-22 17:24:00,55.4,46.5,29.75,NNW,327,7.0,7.0,72,0.00,,,0.83,21,Wunderground v.1.15,2013-09-22 21:24:00,
2013-09-22 17:34:00,55.2,46.7,29.75,North,360,5.0,5.0,73,0.00,,,0.83,25,Wunderground v.1.15,2013-09-22 21:34:00,
2013-09-22 17:44:00,54.9,46.8,29.76,NNE,15,5.0,5.0,74,0.00,,,0.83,28,Wunderground v.1.15,2013-09-22 21:44:00,
2013-09-22 17:49:00,54.6,46.1,29.76,NNW,342,5.0,5.0,73,0.00,,,0.83,30,Wunderground v.1.15,2013-09-22 21:49:00,
2013-09-22 17:59:00,54.4,46.6,29.76,North,5,5.0,5.0,75,0.00,,,0.83,25,Wunderground v.1.15,2013-09-22 21:59:00,
2013-09-22 18:09:00,53.7,46.7,29.76,NW,323,4.0,5.0,77,0.00,,,0.83,23,Wunderground v.1.15,2013-09-22 22:09:00,
2013-09-22 18:14:00,53.3,47.3,29.77,NNW,348,4.0,4.0,80,0.00,,,0.83,18,Wunderground v.1.15,2013-09-22 22:14:00,
2013-09-22 18:24:00,52.7,46.7,29.77,North,5,3.0,7.0,80,0.00,,,0.83,12,Wunderground v.1.15,2013-09-22 22:24:00,
2013-09-22 18:29:00,52.4,46.7,29.77,NNW,345,3.0,7.0,81,0.00,,,0.83,11,Wunderground v.1.15,2013-09-22 22:29:00,
2013-09-22 18:34:00,52.0,46.7,29.77,NNE,14,3.0,4.0,82,0.00,,,0.83,9,Wunderground v.1.15,2013-09-22 22:34:00,
2013-09-22 18:39:00,51.8,46.5,29.77,NNW,346,4.0,4.0,82,0.00,,,0.83,7,Wunderground v.1.15,2013-09-22 22:39:00,
2013-09-22 18:49:00,51.4,45.4,29.78,North,360,4.0,6.0,80,0.00,,,0.83,0,Wunderground v.1.15,2013-09-22 22:49:00,
2013-09-22 18:59:00,50.8,44.5,29.78,NNW,327,4.0,7.0,79,0.00,,,0.83,0,Wunderground v.1.15,2013-09-22 22:59:00,
2013-09-22 19:04:00,50.8,44.5,29.79,NNW,338,5.0,10.0,79,0.00,,,0.83,0,Wunderground v.1.15,2013-09-22 23:04:00,
2013-09-22 19:09:00,50.8,44.2,29.79,North,11,6.0,10.0,78,0.00,,,0.83,0,Wunderground v.1.15,2013-09-22 23:09:00,
2013-09-22 19:14:00,50.5,43.9,29.80,North,360,6.0,6.0,78,0.00,,,0.83,0,Wunderground v.1.15,2013-09-22 23:14:00,
2013-09-22 19:24:00,50.0,43.4,29.80,NNW,346,5.0,6.0,78,0.00,,,0.83,0,Wunderground v.1.15,2013-09-22 23:24:00,
2013-09-22 19:29:00,49.9,43.6,29.80,NNW,329,5.0,7.0,79,0.00,,,0.83,0,Wunderground v.1.15,2013-09-22 23:29:00,
2013-09-22 19:39:00,49.7,43.5,29.81,North,5,6.0,10.0,79,0.00,,,0.83,0,Wunderground v.1.15,2013-09-22 23:39:00,
2013-09-22 19:49:00,49.5,42.9,29.82,NNW,339,6.0,7.0,78,0.00,,,0.83,0,Wunderground v.1.15,2013-09-22 23:49:00,
2013-09-22 19:54:00,49.4,42.8,29.82,North,350,5.0,10.0,78,0.00,,,0.83,0,Wunderground v.1.15,2013-09-22 23:54:00,
2013-09-22 20:04:00,49.1,42.5,29.82,NNW,333,6.0,6.0,78,0.00,,,0.83,0,Wunderground v.1.15,2013-09-23 00:04:00,
2013-09-22 20:09:00,49.2,42.6,29.82,North,360,5.0,6.0,78,0.00,,,0.83,0,Wunderground v.1.15,2013-09-23 00:09:00,
2013-09-22 20:19:00,49.3,42.4,29.82,North,360,7.0,9.0,77,0.00,,,0.83,0,Wunderground v.1.15,2013-09-23 00:19:00,
2013-09-22 20:29:00,49.6,42.3,29.82,North,5,8.0,14.0,76,0.00,,,0.83,0,Wunderground v.1.15,2013-09-23 00:29:00,
2013-09-22 20:34:00,49.6,42.0,29.83,North,351,8.0,8.0,75,0.00,,,0.83,0,Wunderground v.1.15,2013-09-23 00:34:00,
2013-09-22 20:39:00,49.7,42.1,29.83,North,351,8.0,8.0,75,0.00,,,0.83,0,Wunderground v.1.15,2013-09-23 00:39:00,
2013-09-22 20:49:00,49.5,41.9,29.83,North,5,6.0,7.0,75,0.00,,,0.83,0,Wunderground v.1.15,2013-09-23 00:49:00,
2013-09-22 20:59:00,49.4,41.5,29.84,North,360,7.0,11.0,74,0.00,,,0.83,0,Wunderground v.1.15,2013-09-23 00:59:00,
2013-09-22 21:09:00,49.3,41.7,29.84,North,355,6.0,13.0,75,0.00,,,0.83,0,Wunderground v.1.15,2013-09-23 01:09:00,
2013-09-22 21:14:00,49.2,41.6,29.84,NNW,335,6.0,6.0,75,0.00,,,0.83,0,Wunderground v.1.15,2013-09-23 01:14:00,
2013-09-22 21:19:00,49.1,41.5,29.84,NNW,329,5.0,6.0,75,0.00,,,0.83,0,Wunderground v.1.15,2013-09-23 01:19:00,
2013-09-22 21:24:00,49.0,41.4,29.85,NNW,338,4.0,5.0,75,0.00,,,0.83,0,Wunderground v.1.15,2013-09-23 01:24:00,
2013-09-22 21:34:00,48.9,41.7,29.85,North,355,5.0,6.0,76,0.00,,,0.83,0,Wunderground v.1.15,2013-09-23 01:34:00,
2013-09-22 21:44:00,49.0,42.1,29.85,NNW,337,6.0,7.0,77,0.00,,,0.83,0,Wunderground v.1.15,2013-09-23 01:44:00,
2013-09-22 21:49:00,49.1,42.2,29.85,NNW,337,7.0,7.0,77,0.00,,,0.83,0,Wunderground v.1.15,2013-09-23 01:49:00,
2013-09-22 21:59:00,49.2,42.6,29.85,North,11,5.0,6.0,78,0.00,,,0.83,0,Wunderground v.1.15,2013-09-23 01:59:00,
2013-09-22 22:04:00,49.2,42.6,29.85,NNW,336,5.0,5.0,78,0.00,,,0.83,0,Wunderground v.1.15,2013-09-23 02:04:00,
2013-09-22 22:09:00,49.2,42.6,29.86,North,355,5.0,12.0,78,0.00,,,0.83,0,Wunderground v.1.15,2013-09-23 02:09:00,
2013-09-22 22:19:00,49.0,42.4,29.86,North,355,7.0,9.0,78,0.00,,,0.83,0,Wunderground v.1.15,2013-09-23 02:19:00,
2013-09-22 22:24:00,48.8,42.6,29.86,NNW,333,6.0,6.0,79,0.00,,,0.83,0,Wunderground v.1.15,2013-09-23 02:24:00,
2013-09-22 22:29:00,48.6,42.4,29.86,NW,325,6.0,8.0,79,0.00,,,0.83,0,Wunderground v.1.15,2013-09-23 02:29:00,
2013-09-22 22:34:00,48.5,42.3,29.86,NNW,331,7.0,7.0,79,0.00,,,0.83,0,Wunderground v.1.15,2013-09-23 02:34:00,
2013-09-22 22:39:00,48.4,42.5,29.86,NNW,346,6.0,10.0,80,0.00,,,0.83,0,Wunderground v.1.15,2013-09-23 02:39:00,
2013-09-22 22:54:00,48.0,42.1,29.87,North,350,5.0,5.0,80,0.00,,,0.83,0,Wunderground v.1.15,2013-09-23 02:54:00,
2013-09-22 23:04:00,47.7,41.8,29.87,NNW,329,5.0,7.0,80,0.00,,,0.83,0,Wunderground v.1.15,2013-09-23 03:04:00,
2013-09-22 23:09:00,47.5,41.6,29.88,NNE,19,4.0,7.0,80,0.00,,,0.83,0,Wunderground v.1.15,2013-09-23 03:09:00,
2013-09-22 23:14:00,47.4,41.5,29.88,NNW,338,3.0,3.0,80,0.00,,,0.83,0,Wunderground v.1.15,2013-09-23 03:14:00,
2013-09-22 23:19:00,47.3,41.8,29.88,NNW,345,2.0,3.0,81,0.00,,,0.83,0,Wunderground v.1.15,2013-09-23 03:19:00,
2013-09-22 23:29:00,47.0,41.8,29.88,North,355,2.0,5.0,82,0.00,,,0.83,0,Wunderground v.1.15,2013-09-23 03:29:00,
2013-09-22 23:39:00,46.6,41.4,29.88,NW,323,2.0,4.0,82,0.00,,,0.83,0,Wunderground v.1.15,2013-09-23 03:39:00,
2013-09-22 23:49:00,46.3,41.4,29.88,NNW,346,2.0,4.0,83,0.00,,,0.83,0,Wunderground v.1.15,2013-09-23 03:49:00,
2013-09-22 23:54:00,46.3,41.7,29.88,NNW,346,3.0,4.0,84,0.00,,,0.83,0,Wunderground v.1.15,2013-09-23 03:54:00,
2013-09-22 23:59:00,46.3,41.7,29.88,NNW,347,4.0,9.0,84,0.00,,,0.83,0,Wunderground v.1.15,2013-09-23 03:59:00,